Terminal Aerodrome Forecast
Issued by NWS Houston/Galveston, TX

Home | Current Version | Previous Version | Text Only | Print | Product List | Glossary On
Versions: 1 2 3 4 5 6 7 8 9 10 11 12 13 14 15 16 17 18 19 20 21 22 23 24 25 26 27 28 29 30 31 32 33 34 35 36 37 38 39 40 41 42 43 44 45 46 47 48 49 50
812
FTUS44 KHGX 082157 AAC
TAFGLS
TAF AMD
KGLS 082157Z 0822/0918 01024G30KT P6SM SCT025 BKN060
     FM090300 01022G32KT P6SM FEW025 BKN070 BKN250
     FM090800 01019G29KT P6SM SCT070 BKN250
     FM091600 03017G23KT P6SM FEW250=

USA.gov is the U.S. government's official web portal to all federal, state and local government web resources and services.